sensor_id;sensor_type;location;lat;lon;timestamp;pressure;altitude;pressure_sealevel;temperature;humidity
72116;BME280;59991;52.140;5.428;2023-07-31T00:00:01;100953.22;;;15.54;100.00
72116;BME280;59991;52.140;5.428;2023-07-31T00:00:33;100959.13;;;15.52;100.00
72116;BME280;59991;52.140;5.428;2023-07-31T00:01:05;100956.38;;;15.52;100.00
72116;BME280;59991;52.140;5.428;2023-07-31T00:01:36;100950.09;;;15.52;100.00
72116;BME280;59991;52.140;5.428;2023-07-31T00:02:08;100958.34;;;15.52;100.00
72116;BME280;59991;52.140;5.428;2023-07-31T00:02:39;100955.59;;;15.52;100.00
72116;BME280;59991;52.140;5.428;2023-07-31T00:03:11;100954.41;;;15.53;100.00
72116;BME280;59991;52.140;5.428;2023-07-31T00:03:42;100951.28;;;15.51;100.00
72116;BME280;59991;52.140;5.428;2023-07-31T00:04:14;100950.09;;;15.52;100.00
72116;BME280;59991;52.140;5.428;2023-07-31T00:04:46;100953.63;;;15.52;100.00
72116;BME280;59991;52.140;5.428;2023-07-31T00:05:17;100954.41;;;15.53;100.00
72116;BME280;59991;52.140;5.428;2023-07-31T00:05:49;100946.94;;;15.53;100.00
72116;BME280;59991;52.140;5.428;2023-07-31T00:06:20;100950.09;;;15.52;100.00
72116;BME280;59991;52.140;5.428;2023-07-31T00:06:52;100950.09;;;15.52;100.00
72116;BME280;59991;52.140;5.428;2023-07-31T00:07:23;100950.09;;;15.52;100.00
72116;BME280;59991;52.140;5.428;2023-07-31T00:07:55;100944.59;;;15.52;100.00
72116;BME280;59991;52.140;5.428;2023-07-31T00:08:26;100941.84;;;15.52;100.00
72116;BME280;59991;52.140;5.428;2023-07-31T00:08:58;100945.38;;;15.52;100.00
72116;BME280;59991;52.140;5.428;2023-07-31T00:09:30;100943.41;;;15.53;100.00
72116;BME280;59991;52.140;5.428;2023-07-31T00:10:01;100940.66;;;15.53;100.00
72116;BME280;59991;52.140;5.428;2023-07-31T00:10:33;100946.16;;;15.53;100.00
72116;BME280;59991;52.140;5.428;2023-07-31T00:11:05;100935.56;;;15.51;100.00
72116;BME280;59991;52.140;5.428;2023-07-31T00:11:36;100934.03;;;15.50;100.00
72116;BME280;59991;52.140;5.428;2023-07-31T00:12:08;100941.47;;;15.50;100.00
72116;BME280;59991;52.140;5.428;2023-07-31T00:12:41;100942.25;;;15.50;100.00
72116;BME280;59991;52.140;5.428;2023-07-31T00:13:13;100935.97;;;15.50;100.00
72116;BME280;59991;52.140;5.428;2023-07-31T00:13:45;100939.50;;;15.50;100.00
72116;BME280;59991;52.140;5.428;2023-07-31T00:14:16;100934.44;;;15.49;100.00
72116;BME280;59991;52.140;5.428;2023-07-31T00:14:48;100927.75;;;15.50;100.00
72116;BME280;59991;52.140;5.428;2023-07-31T00:15:19;100924.63;;;15.48;100.00
72116;BME280;59991;52.140;5.428;2023-07-31T00:15:51;100925.41;;;15.48;100.00
72116;BME280;59991;52.140;5.428;2023-07-31T00:16:23;100922.25;;;15.50;100.00
72116;BME280;59991;52.140;5.428;2023-07-31T00:16:54;100923.03;;;15.50;100.00
72116;BME280;59991;52.140;5.428;2023-07-31T00:17:26;100921.06;;;15.51;100.00
72116;BME280;59991;52.140;5.428;2023-07-31T00:17:57;100921.06;;;15.51;100.00
72116;BME280;59991;52.140;5.428;2023-07-31T00:18:29;100914.00;;;15.50;100.00
72116;BME280;59991;52.140;5.428;2023-07-31T00:19:00;100916.75;;;15.50;100.00
72116;BME280;59991;52.140;5.428;2023-07-31T00:19:32;100921.06;;;15.51;100.00
72116;BME280;59991;52.140;5.428;2023-07-31T00:20:03;100915.56;;;15.51;100.00
72116;BME280;59991;52.140;5.428;2023-07-31T00:20:35;100917.13;;;15.52;100.00
72116;BME280;59991;52.140;5.428;2023-07-31T00:21:06;100920.25;;;15.54;100.00
72116;BME280;59991;52.140;5.428;2023-07-31T00:21:38;100910.81;;;15.55;100.00
72116;BME280;59991;52.140;5.428;2023-07-31T00:22:09;100917.91;;;15.56;100.00
72116;BME280;59991;52.140;5.428;2023-07-31T00:22:41;100921.03;;;15.58;100.00
72116;BME280;59991;52.140;5.428;2023-07-31T00:23:12;100916.31;;;15.59;100.00
72116;BME280;59991;52.140;5.428;2023-07-31T00:23:44;100911.56;;;15.59;100.00
72116;BME280;59991;52.140;5.428;2023-07-31T00:24:15;100913.91;;;15.61;100.00
72116;BME280;59991;52.140;5.428;2023-07-31T00:24:47;100912.72;;;15.62;100.00
72116;BME280;59991;52.140;5.428;2023-07-31T00:25:19;100915.06;;;15.63;100.00
72116;BME280;59991;52.140;5.428;2023-07-31T00:25:50;100913.88;;;15.64;100.00
72116;BME280;59991;52.140;5.428;2023-07-31T00:26:22;100917.78;;;15.67;100.00
72116;BME280;59991;52.140;5.428;2023-07-31T00:26:53;100902.06;;;15.67;100.00
72116;BME280;59991;52.140;5.428;2023-07-31T00:27:25;100907.16;;;15.69;100.00
72116;BME280;59991;52.140;5.428;2023-07-31T00:27:56;100907.94;;;15.69;100.00
72116;BME280;59991;52.140;5.428;2023-07-31T00:28:28;100918.94;;;15.69;100.00
72116;BME280;59991;52.140;5.428;2023-07-31T00:29:00;100916.97;;;15.70;100.00
72116;BME280;59991;52.140;5.428;2023-07-31T00:29:31;100912.66;;;15.69;100.00
72116;BME280;59991;52.140;5.428;2023-07-31T00:30:03;100906.38;;;15.68;100.00
72116;BME280;59991;52.140;5.428;2023-07-31T00:30:35;100914.63;;;15.68;100.00
72116;BME280;59991;52.140;5.428;2023-07-31T00:31:07;100907.94;;;15.69;100.00
72116;BME280;59991;52.140;5.428;2023-07-31T00:31:38;100912.25;;;15.70;100.00
72116;BME280;59991;52.140;5.428;2023-07-31T00:32:10;100922.03;;;15.71;100.00
72116;BME280;59991;52.140;5.428;2023-07-31T00:32:59;100914.59;;;15.72;100.00
72116;BME280;59991;52.140;5.428;2023-07-31T00:33:31;100917.75;;;15.70;100.00
72116;BME280;59991;52.140;5.428;2023-07-31T00:34:03;100921.25;;;15.71;100.00
72116;BME280;59991;52.140;5.428;2023-07-31T00:34:34;100921.25;;;15.71;100.00
72116;BME280;59991;52.140;5.428;2023-07-31T00:35:06;100920.50;;;15.70;100.00
72116;BME280;59991;52.140;5.428;2023-07-31T00:35:37;100916.56;;;15.71;100.00
72116;BME280;59991;52.140;5.428;2023-07-31T00:36:09;100909.88;;;15.72;100.00
72116;BME280;59991;52.140;5.428;2023-07-31T00:36:40;100916.13;;;15.73;100.00
72116;BME280;59991;52.140;5.428;2023-07-31T00:37:12;100908.69;;;15.73;100.00
72116;BME280;59991;52.140;5.428;2023-07-31T00:37:43;100900.44;;;15.73;100.00
72116;BME280;59991;52.140;5.428;2023-07-31T00:38:15;100907.91;;;15.73;100.00
72116;BME280;59991;52.140;5.428;2023-07-31T00:38:46;100911.06;;;15.71;100.00
72116;BME280;59991;52.140;5.428;2023-07-31T00:39:18;100907.13;;;15.72;100.00
72116;BME280;59991;52.140;5.428;2023-07-31T00:39:50;100908.31;;;15.71;100.00
72116;BME280;59991;52.140;5.428;2023-07-31T00:40:21;100909.09;;;15.72;100.00
72116;BME280;59991;52.140;5.428;2023-07-31T00:40:53;100906.75;;;15.70;100.00
72116;BME280;59991;52.140;5.428;2023-07-31T00:41:24;100909.09;;;15.72;100.00
72116;BME280;59991;52.140;5.428;2023-07-31T00:42:14;100898.88;;;15.72;100.00
72116;BME280;59991;52.140;5.428;2023-07-31T00:42:46;100907.13;;;15.72;100.00
72116;BME280;59991;52.140;5.428;2023-07-31T00:43:18;100907.53;;;15.71;100.00
72116;BME280;59991;52.140;5.428;2023-07-31T00:43:50;100900.84;;;15.72;100.00
72116;BME280;59991;52.140;5.428;2023-07-31T00:44:21;100905.16;;;15.73;100.00
72116;BME280;59991;52.140;5.428;2023-07-31T00:44:53;100905.16;;;15.73;100.00
72116;BME280;59991;52.140;5.428;2023-07-31T00:45:24;100908.69;;;15.73;100.00
72116;BME280;59991;52.140;5.428;2023-07-31T00:45:58;100905.16;;;15.73;100.00
72116;BME280;59991;52.140;5.428;2023-07-31T00:46:30;100899.66;;;15.73;100.00
72116;BME280;59991;52.140;5.428;2023-07-31T00:47:01;100900.44;;;15.73;100.00
72116;BME280;59991;52.140;5.428;2023-07-31T00:47:33;100897.69;;;15.73;100.00
72116;BME280;59991;52.140;5.428;2023-07-31T00:48:05;100895.72;;;15.74;100.00
72116;BME280;59991;52.140;5.428;2023-07-31T00:48:39;100895.72;;;15.74;100.00
72116;BME280;59991;52.140;5.428;2023-07-31T00:49:11;100902.78;;;15.75;100.00
72116;BME280;59991;52.140;5.428;2023-07-31T00:49:43;100894.94;;;15.73;100.00
72116;BME280;59991;52.140;5.428;2023-07-31T00:50:15;100897.69;;;15.73;100.00
72116;BME280;59991;52.140;5.428;2023-07-31T00:50:47;100899.25;;;15.74;100.00
72116;BME280;59991;52.140;5.428;2023-07-31T00:51:20;100892.56;;;15.75;100.00
72116;BME280;59991;52.140;5.428;2023-07-31T00:51:51;100900.78;;;15.75;100.00
72116;BME280;59991;52.140;5.428;2023-07-31T00:52:23;100905.09;;;15.76;100.00
72116;BME280;59991;52.140;5.428;2023-07-31T00:52:54;100894.88;;;15.77;100.00
72116;BME280;59991;52.140;5.428;2023-07-31T00:53:27;100898.41;;;15.77;100.00
72116;BME280;59991;52.140;5.428;2023-07-31T00:53:59;100897.63;;;15.77;100.00
72116;BME280;59991;52.140;5.428;2023-07-31T00:54:31;100896.00;;;15.79;100.00
72116;BME280;59991;52.140;5.428;2023-07-31T00:55:03;100898.75;;;15.79;100.00
72116;BME280;59991;52.140;5.428;2023-07-31T00:55:35;100893.63;;;15.81;100.00
72116;BME280;59991;52.140;5.428;2023-07-31T00:56:07;100898.72;;;15.83;100.00
72116;BME280;59991;52.140;5.428;2023-07-31T00:56:40;100893.59;;;15.85;100.00
72116;BME280;59991;52.140;5.428;2023-07-31T00:57:12;100896.34;;;15.85;100.00
72116;BME280;59991;52.140;5.428;2023-07-31T00:57:45;100901.84;;;15.85;100.00
72116;BME280;59991;52.140;5.428;2023-07-31T00:58:17;100897.13;;;15.85;100.00
72116;BME280;59991;52.140;5.428;2023-07-31T00:58:48;100895.16;;;15.86;100.00
72116;BME280;59991;52.140;5.428;2023-07-31T00:59:20;100906.53;;;15.88;100.00
72116;BME280;59991;52.140;5.428;2023-07-31T00:59:51;100900.25;;;15.87;100.00
72116;BME280;59991;52.140;5.428;2023-07-31T01:00:23;100895.53;;;15.88;100.00
72116;BME280;59991;52.140;5.428;2023-07-31T01:00:54;100888.84;;;15.89;100.00
72116;BME280;59991;52.140;5.428;2023-07-31T01:01:26;100888.44;;;15.91;100.00
72116;BME280;59991;52.140;5.428;2023-07-31T01:01:57;100890.41;;;15.90;100.00
72116;BME280;59991;52.140;5.428;2023-07-31T01:02:29;100891.97;;;15.91;100.00
72116;BME280;59991;52.140;5.428;2023-07-31T01:03:01;100894.72;;;15.91;100.00
72116;BME280;59991;52.140;5.428;2023-07-31T01:03:33;100897.06;;;15.93;100.00
72116;BME280;59991;52.140;5.428;2023-07-31T01:04:04;100887.25;;;15.92;100.00
72116;BME280;59991;52.140;5.428;2023-07-31T01:04:36;100895.84;;;15.94;100.00
72116;BME280;59991;52.140;5.428;2023-07-31T01:05:08;100892.69;;;15.95;100.00
72116;BME280;59991;52.140;5.428;2023-07-31T01:05:53;100893.47;;;15.96;100.00
72116;BME280;59991;52.140;5.428;2023-07-31T01:06:44;100887.53;;;15.97;100.00
72116;BME280;59991;52.140;5.428;2023-07-31T01:07:27;100880.06;;;15.98;100.00
72116;BME280;59991;52.140;5.428;2023-07-31T01:08:11;100890.28;;;15.97;100.00
72116;BME280;59991;52.140;5.428;2023-07-31T01:09:52;100891.44;;;16.00;100.00
72116;BME280;59991;52.140;5.428;2023-07-31T01:10:36;100887.50;;;16.01;100.00
72116;BME280;59991;52.140;5.428;2023-07-31T01:11:15;100891.81;;;16.02;100.00
72116;BME280;59991;52.140;5.428;2023-07-31T01:11:53;100891.81;;;16.02;100.00
72116;BME280;59991;52.140;5.428;2023-07-31T01:12:27;100884.34;;;16.02;100.00
72116;BME280;59991;52.140;5.428;2023-07-31T01:12:59;100887.88;;;16.03;100.00
72116;BME280;59991;52.140;5.428;2023-07-31T01:13:31;100885.13;;;16.03;100.00
72116;BME280;59991;52.140;5.428;2023-07-31T01:14:03;100883.94;;;16.04;100.00
72116;BME280;59991;52.140;5.428;2023-07-31T01:14:34;100886.69;;;16.04;100.00
72116;BME280;59991;52.140;5.428;2023-07-31T01:15:08;100890.22;;;16.04;100.00
72116;BME280;59991;52.140;5.428;2023-07-31T01:15:43;100900.81;;;16.06;100.00
72116;BME280;59991;52.140;5.428;2023-07-31T01:16:14;100900.81;;;16.06;100.00
72116;BME280;59991;52.140;5.428;2023-07-31T01:16:46;100899.63;;;16.07;100.00
72116;BME280;59991;52.140;5.428;2023-07-31T01:17:18;100902.38;;;16.07;100.00
72116;BME280;59991;52.140;5.428;2023-07-31T01:17:49;100901.16;;;16.08;100.00
72116;BME280;59991;52.140;5.428;2023-07-31T01:18:21;100899.19;;;16.08;100.00
72116;BME280;59991;52.140;5.428;2023-07-31T01:18:52;100905.47;;;16.09;100.00
72116;BME280;59991;52.140;5.428;2023-07-31T01:19:25;100894.47;;;16.09;100.00
72116;BME280;59991;52.140;5.428;2023-07-31T01:20:04;100895.25;;;16.09;100.00
72116;BME280;59991;52.140;5.428;2023-07-31T01:20:37;100877.97;;;16.09;100.00
72116;BME280;59991;52.140;5.428;2023-07-31T01:22:28;100896.44;;;16.08;100.00
72116;BME280;59991;52.140;5.428;2023-07-31T01:23:26;100884.28;;;16.06;100.00
72116;BME280;59991;52.140;5.428;2023-07-31T01:26:12;100887.91;;;15.99;100.00
72116;BME280;59991;52.140;5.428;2023-07-31T01:26:49;100899.31;;;15.98;100.00
72116;BME280;59991;52.140;5.428;2023-07-31T01:27:24;100897.00;;;15.96;100.00
72116;BME280;59991;52.140;5.428;2023-07-31T01:28:04;100896.22;;;15.96;100.00
72116;BME280;59991;52.140;5.428;2023-07-31T01:28:40;100888.38;;;15.94;100.00
72116;BME280;59991;52.140;5.428;2023-07-31T01:29:29;100896.22;;;15.96;100.00
72116;BME280;59991;52.140;5.428;2023-07-31T01:30:08;100893.09;;;15.94;100.00
72116;BME280;59991;52.140;5.428;2023-07-31T01:30:48;100894.31;;;15.93;100.00
72116;BME280;59991;52.140;5.428;2023-07-31T01:31:22;100890.78;;;15.92;100.00
72116;BME280;59991;52.140;5.428;2023-07-31T01:31:55;100891.56;;;15.93;100.00
72116;BME280;59991;52.140;5.428;2023-07-31T01:32:29;100892.34;;;15.93;100.00
72116;BME280;59991;52.140;5.428;2023-07-31T01:33:01;100897.41;;;15.95;100.00
72116;BME280;59991;52.140;5.428;2023-07-31T01:33:38;100897.78;;;15.97;100.00
72116;BME280;59991;52.140;5.428;2023-07-31T01:34:09;100890.72;;;15.96;100.00
72116;BME280;59991;52.140;5.428;2023-07-31T01:34:41;100900.94;;;15.95;100.00
72116;BME280;59991;52.140;5.428;2023-07-31T01:35:13;100898.19;;;15.95;100.00
72116;BME280;59991;52.140;5.428;2023-07-31T01:35:46;100891.16;;;15.94;100.00
72116;BME280;59991;52.140;5.428;2023-07-31T01:36:19;100891.91;;;15.95;100.00
72116;BME280;59991;52.140;5.428;2023-07-31T01:36:51;100900.16;;;15.95;100.00
72116;BME280;59991;52.140;5.428;2023-07-31T01:37:28;100898.97;;;15.96;100.00
72116;BME280;59991;52.140;5.428;2023-07-31T01:38:00;100897.41;;;15.95;100.00
72116;BME280;59991;52.140;5.428;2023-07-31T01:38:31;100902.91;;;15.95;100.00
72116;BME280;59991;52.140;5.428;2023-07-31T01:39:03;100889.16;;;15.95;100.00
72116;BME280;59991;52.140;5.428;2023-07-31T01:39:35;100895.44;;;15.95;100.00
72116;BME280;59991;52.140;5.428;2023-07-31T01:40:07;100895.44;;;15.95;100.00
72116;BME280;59991;52.140;5.428;2023-07-31T01:40:41;100891.50;;;15.96;100.00
72116;BME280;59991;52.140;5.428;2023-07-31T01:41:13;100897.00;;;15.96;100.00
72116;BME280;59991;52.140;5.428;2023-07-31T01:41:45;100898.97;;;15.96;100.00
72116;BME280;59991;52.140;5.428;2023-07-31T01:42:16;100906.44;;;15.95;100.00
72116;BME280;59991;52.140;5.428;2023-07-31T01:42:47;100901.72;;;15.96;100.00
72116;BME280;59991;52.140;5.428;2023-07-31T01:43:19;100896.22;;;15.96;100.00
72116;BME280;59991;52.140;5.428;2023-07-31T01:43:51;100901.72;;;15.96;100.00
72116;BME280;59991;52.140;5.428;2023-07-31T01:44:23;100897.78;;;15.97;100.00
72116;BME280;59991;52.140;5.428;2023-07-31T01:44:54;100892.28;;;15.97;100.00
72116;BME280;59991;52.140;5.428;2023-07-31T01:45:26;100893.03;;;15.97;100.00
72116;BME280;59991;52.140;5.428;2023-07-31T01:45:58;100893.03;;;15.97;100.00
72116;BME280;59991;52.140;5.428;2023-07-31T01:46:29;100891.84;;;15.98;100.00
72116;BME280;59991;52.140;5.428;2023-07-31T01:47:01;100889.88;;;15.99;100.00
72116;BME280;59991;52.140;5.428;2023-07-31T01:47:32;100894.59;;;15.98;100.00
72116;BME280;59991;52.140;5.428;2023-07-31T01:48:04;100891.84;;;15.98;100.00
72116;BME280;59991;52.140;5.428;2023-07-31T01:48:35;100895.38;;;15.99;100.00
72116;BME280;59991;52.140;5.428;2023-07-31T01:49:08;100894.59;;;15.98;100.00
72116;BME280;59991;52.140;5.428;2023-07-31T01:49:39;100891.44;;;16.00;100.00
72116;BME280;59991;52.140;5.428;2023-07-31T01:50:11;100888.69;;;16.00;100.00
72116;BME280;59991;52.140;5.428;2023-07-31T01:50:42;100886.72;;;16.00;100.00
72116;BME280;59991;52.140;5.428;2023-07-31T01:51:14;100893.00;;;16.01;100.00
72116;BME280;59991;52.140;5.428;2023-07-31T01:51:45;100893.38;;;16.03;100.00
72116;BME280;59991;52.140;5.428;2023-07-31T01:52:17;100894.94;;;16.04;100.00
72116;BME280;59991;52.140;5.428;2023-07-31T01:52:48;100879.22;;;16.04;100.00
72116;BME280;59991;52.140;5.428;2023-07-31T01:53:20;100888.25;;;16.05;100.00
72116;BME280;59991;52.140;5.428;2023-07-31T01:53:51;100882.75;;;16.05;100.00
72116;BME280;59991;52.140;5.428;2023-07-31T01:54:23;100888.25;;;16.05;100.00
72116;BME280;59991;52.140;5.428;2023-07-31T01:54:54;100881.53;;;16.06;100.00
72116;BME280;59991;52.140;5.428;2023-07-31T01:55:26;100881.97;;;16.04;100.00
72116;BME280;59991;52.140;5.428;2023-07-31T01:55:57;100885.50;;;16.05;100.00
72116;BME280;59991;52.140;5.428;2023-07-31T01:56:29;100879.22;;;16.04;100.00
72116;BME280;59991;52.140;5.428;2023-07-31T01:57:00;100878.44;;;16.04;100.00
72116;BME280;59991;52.140;5.428;2023-07-31T01:57:32;100874.13;;;16.03;100.00
72116;BME280;59991;52.140;5.428;2023-07-31T01:58:04;100864.69;;;16.04;100.00
72116;BME280;59991;52.140;5.428;2023-07-31T01:58:35;100876.47;;;16.04;100.00
72116;BME280;59991;52.140;5.428;2023-07-31T01:59:07;100876.47;;;16.04;100.00
72116;BME280;59991;52.140;5.428;2023-07-31T01:59:38;100870.19;;;16.04;100.00
72116;BME280;59991;52.140;5.428;2023-07-31T02:00:10;100880.41;;;16.03;100.00
72116;BME280;59991;52.140;5.428;2023-07-31T02:00:42;100872.94;;;16.04;100.00
72116;BME280;59991;52.140;5.428;2023-07-31T02:01:14;100879.22;;;16.04;100.00
72116;BME280;59991;52.140;5.428;2023-07-31T02:01:45;100879.56;;;16.06;100.00
72116;BME280;59991;52.140;5.428;2023-07-31T02:02:17;100874.84;;;16.07;100.00
72116;BME280;59991;52.140;5.428;2023-07-31T02:02:48;100878.38;;;16.07;100.00
72116;BME280;59991;52.140;5.428;2023-07-31T02:03:20;100875.22;;;16.09;100.00
72116;BME280;59991;52.140;5.428;2023-07-31T02:03:52;100877.19;;;16.08;100.00
72116;BME280;59991;52.140;5.428;2023-07-31T02:04:23;100875.22;;;16.09;100.00
72116;BME280;59991;52.140;5.428;2023-07-31T02:04:55;100879.13;;;16.11;100.00
72116;BME280;59991;52.140;5.428;2023-07-31T02:05:26;100874.81;;;16.10;100.00
72116;BME280;59991;52.140;5.428;2023-07-31T02:05:58;100876.38;;;16.11;100.00
72116;BME280;59991;52.140;5.428;2023-07-31T02:06:29;100873.22;;;16.13;100.00
72116;BME280;59991;52.140;5.428;2023-07-31T02:07:01;100860.66;;;16.12;100.00
72116;BME280;59991;52.140;5.428;2023-07-31T02:07:32;100877.94;;;16.12;100.00
72116;BME280;59991;52.140;5.428;2023-07-31T02:08:04;100861.44;;;16.12;100.00
72116;BME280;59991;52.140;5.428;2023-07-31T02:08:37;100875.19;;;16.12;100.00
72116;BME280;59991;52.140;5.428;2023-07-31T02:09:08;100868.13;;;16.11;100.00
72116;BME280;59991;52.140;5.428;2023-07-31T02:09:40;100855.16;;;16.12;100.00
72116;BME280;59991;52.140;5.428;2023-07-31T02:10:11;100867.34;;;16.11;100.00
72116;BME280;59991;52.140;5.428;2023-07-31T02:10:43;100857.13;;;16.11;100.00
72116;BME280;59991;52.140;5.428;2023-07-31T02:11:14;100855.16;;;16.12;100.00
72116;BME280;59991;52.140;5.428;2023-07-31T02:11:46;100866.16;;;16.12;100.00
72116;BME280;59991;52.140;5.428;2023-07-31T02:12:17;100861.84;;;16.11;100.00
72116;BME280;59991;52.140;5.428;2023-07-31T02:12:49;100856.75;;;16.09;100.00
72116;BME280;59991;52.140;5.428;2023-07-31T02:13:20;100856.75;;;16.09;100.00
72116;BME280;59991;52.140;5.428;2023-07-31T02:13:51;100858.31;;;16.10;100.00
72116;BME280;59991;52.140;5.428;2023-07-31T02:14:23;100858.31;;;16.10;100.00
72116;BME280;59991;52.140;5.428;2023-07-31T02:14:55;100859.09;;;16.11;100.00
72116;BME280;59991;52.140;5.428;2023-07-31T02:15:27;100852.41;;;16.12;100.00
72116;BME280;59991;52.140;5.428;2023-07-31T02:15:58;100858.69;;;16.12;100.00
72116;BME280;59991;52.140;5.428;2023-07-31T02:16:30;100852.41;;;16.12;100.00
72116;BME280;59991;52.140;5.428;2023-07-31T02:17:01;100846.91;;;16.12;100.00
72116;BME280;59991;52.140;5.428;2023-07-31T02:17:33;100855.16;;;16.12;100.00
72116;BME280;59991;52.140;5.428;2023-07-31T02:18:04;100848.09;;;16.11;100.00
72116;BME280;59991;52.140;5.428;2023-07-31T02:18:36;100854.38;;;16.11;100.00
72116;BME280;59991;52.140;5.428;2023-07-31T02:19:08;100843.38;;;16.11;100.00
72116;BME280;59991;52.140;5.428;2023-07-31T02:19:39;100851.63;;;16.11;100.00
72116;BME280;59991;52.140;5.428;2023-07-31T02:20:11;100846.13;;;16.11;100.00
72116;BME280;59991;52.140;5.428;2023-07-31T02:20:43;100850.84;;;16.11;100.00
72116;BME280;59991;52.140;5.428;2023-07-31T02:21:17;100845.75;;;16.09;100.00
72116;BME280;59991;52.140;5.428;2023-07-31T02:21:48;100842.59;;;16.11;100.00
72116;BME280;59991;52.140;5.428;2023-07-31T02:22:20;100842.59;;;16.11;100.00
72116;BME280;59991;52.140;5.428;2023-07-31T02:22:51;100835.53;;;16.10;100.00
72116;BME280;59991;52.140;5.428;2023-07-31T02:23:23;100837.50;;;16.09;100.00
72116;BME280;59991;52.140;5.428;2023-07-31T02:23:54;100837.91;;;16.08;100.00
72116;BME280;59991;52.140;5.428;2023-07-31T02:24:26;100834.38;;;16.07;100.00
72116;BME280;59991;52.140;5.428;2023-07-31T02:24:57;100828.88;;;16.07;100.00
72116;BME280;59991;52.140;5.428;2023-07-31T02:25:29;100835.16;;;16.08;100.00
72116;BME280;59991;52.140;5.428;2023-07-31T02:26:01;100841.06;;;16.06;100.00
72116;BME280;59991;52.140;5.428;2023-07-31T02:26:32;100840.28;;;16.06;100.00
72116;BME280;59991;52.140;5.428;2023-07-31T02:27:04;100840.28;;;16.06;100.00
72116;BME280;59991;52.140;5.428;2023-07-31T02:27:35;100841.06;;;16.06;100.00
72116;BME280;59991;52.140;5.428;2023-07-31T02:28:07;100838.72;;;16.05;100.00
72116;BME280;59991;52.140;5.428;2023-07-31T02:28:39;100835.97;;;16.05;100.00
72116;BME280;59991;52.140;5.428;2023-07-31T02:29:10;100835.56;;;16.06;100.00
72116;BME280;59991;52.140;5.428;2023-07-31T02:29:41;100843.03;;;16.06;100.00
72116;BME280;59991;52.140;5.428;2023-07-31T02:30:13;100839.13;;;16.03;100.00
72116;BME280;59991;52.140;5.428;2023-07-31T02:30:45;100837.53;;;16.06;100.00
72116;BME280;59991;52.140;5.428;2023-07-31T02:31:19;100836.75;;;16.05;100.00
72116;BME280;59991;52.140;5.428;2023-07-31T02:31:53;100835.97;;;16.05;100.00
72116;BME280;59991;52.140;5.428;2023-07-31T02:32:25;100835.97;;;16.05;100.00
72116;BME280;59991;52.140;5.428;2023-07-31T02:32:56;100830.47;;;16.05;100.00
72116;BME280;59991;52.140;5.428;2023-07-31T02:33:28;100842.66;;;16.04;100.00
72116;BME280;59991;52.140;5.428;2023-07-31T02:33:59;100833.63;;;16.03;100.00
72116;BME280;59991;52.140;5.428;2023-07-31T02:34:49;100843.03;;;16.06;100.00
72116;BME280;59991;52.140;5.428;2023-07-31T02:35:21;100837.53;;;16.06;100.00
72116;BME280;59991;52.140;5.428;2023-07-31T02:35:52;100834.78;;;16.06;100.00
72116;BME280;59991;52.140;5.428;2023-07-31T02:36:24;100837.16;;;16.04;100.00
72116;BME280;59991;52.140;5.428;2023-07-31T02:36:55;100841.47;;;16.05;100.00
72116;BME280;59991;52.140;5.428;2023-07-31T02:37:26;100830.88;;;16.03;100.00
72116;BME280;59991;52.140;5.428;2023-07-31T02:38:00;100830.47;;;16.05;100.00
72116;BME280;59991;52.140;5.428;2023-07-31T02:38:31;100833.22;;;16.05;100.00
72116;BME280;59991;52.140;5.428;2023-07-31T02:39:03;100835.19;;;16.04;100.00
72116;BME280;59991;52.140;5.428;2023-07-31T02:39:34;100836.75;;;16.05;100.00
72116;BME280;59991;52.140;5.428;2023-07-31T02:40:06;100833.59;;;16.07;100.00
72116;BME280;59991;52.140;5.428;2023-07-31T02:40:39;100832.03;;;16.06;100.00
72116;BME280;59991;52.140;5.428;2023-07-31T02:41:11;100834.78;;;16.06;100.00
72116;BME280;59991;52.140;5.428;2023-07-31T02:41:43;100831.63;;;16.07;100.00
72116;BME280;59991;52.140;5.428;2023-07-31T02:42:14;100834.78;;;16.06;100.00
72116;BME280;59991;52.140;5.428;2023-07-31T02:42:46;100833.63;;;16.03;100.00
72116;BME280;59991;52.140;5.428;2023-07-31T02:43:18;100835.63;;;16.03;100.00
72116;BME280;59991;52.140;5.428;2023-07-31T02:43:49;100834.41;;;16.04;100.00
72116;BME280;59991;52.140;5.428;2023-07-31T02:44:20;100837.16;;;16.04;100.00
72116;BME280;59991;52.140;5.428;2023-07-31T02:44:52;100835.19;;;16.04;100.00
72116;BME280;59991;52.140;5.428;2023-07-31T02:45:26;100845.78;;;16.06;100.00
72116;BME280;59991;52.140;5.428;2023-07-31T02:45:59;100841.06;;;16.06;100.00
72116;BME280;59991;52.140;5.428;2023-07-31T02:46:31;100838.31;;;16.06;100.00
72116;BME280;59991;52.140;5.428;2023-07-31T02:47:03;100840.66;;;16.08;100.00
72116;BME280;59991;52.140;5.428;2023-07-31T02:47:34;100839.88;;;16.07;100.00
72116;BME280;59991;52.140;5.428;2023-07-31T02:48:06;100835.16;;;16.08;100.00
72116;BME280;59991;52.140;5.428;2023-07-31T02:48:37;100837.91;;;16.08;100.00
72116;BME280;59991;52.140;5.428;2023-07-31T02:49:09;100839.09;;;16.07;100.00
72116;BME280;59991;52.140;5.428;2023-07-31T02:49:41;100834.38;;;16.07;100.00
72116;BME280;59991;52.140;5.428;2023-07-31T02:50:12;100837.91;;;16.08;100.00
72116;BME280;59991;52.140;5.428;2023-07-31T02:50:44;100839.88;;;16.07;100.00
72116;BME280;59991;52.140;5.428;2023-07-31T02:51:16;100839.09;;;16.07;100.00
72116;BME280;59991;52.140;5.428;2023-07-31T02:51:47;100832.41;;;16.08;100.00
72116;BME280;59991;52.140;5.428;2023-07-31T02:52:19;100837.91;;;16.08;100.00